Stations météo

réclame
Mon MeteoGroup
Mende, France (7554): Température de l'air & dewpoint: 10.01.2018 10:00:00 - 16.01.2018 10:00:00 (CET)Mende, France (7554): Température de l'air 5cm: 10.01.2018 10:00:00 - 16.01.2018 10:00:00 (CET)Mende, France (7554): Température de l'air -20cm & Température de l'air -100cm: 10.01.2018 10:00:00 - 16.01.2018 10:00:00 (CET)Mende, France (7554): Vitesse du vent & gusts: 10.01.2018 10:00:00 - 16.01.2018 10:00:00 (CET)Mende, France (7554): Direction du vent: 10.01.2018 10:00:00 - 16.01.2018 10:00:00 (CET)Mende, France (7554): visibility: 10.01.2018 10:00:00 - 16.01.2018 10:00:00 (CET)Mende, France (7554): Ensoleillement: 10.01.2018 10:00:00 - 16.01.2018 10:00:00 (CET)Mende, France (7554): Quantités de précipitations: 10.01.2018 10:00:00 - 16.01.2018 10:00:00 (CET)
Date & Time tt [°C] td [°C] tt 5cm [°C] tt -20cm [°C] tt -100cm [°C] ff [km/h] ff [knt] fx [km/h] fx [knt] dd vv [km] sd [min] rr [mm]
16.01.2018 10:00:00 6,1 5,2 5,4 4,1 6,0 34 18 62 33 WNW 20 0 0,0
16.01.2018 09:00:00 5,5 4,9 5,2 4,1 6,0 28 15 54 29 WNW 16 0 0,0
16.01.2018 08:00:00 5,4 5,1 5,0 4,2 6,0 26 14 47 26 WNW 18 0 0,0
16.01.2018 07:00:00 5,2 5,1 4,7 4,1 6,0 22 12 42 23 W 15 0 0,0
16.01.2018 06:00:00 4,7 4,6 4,3 4,1 6,0 13 7 34 18 W 4,0 0 0,0
16.01.2018 05:00:00 4,4 4,3 3,9 4,1 6,0 16 9 33 18 W 2,1 0 0,2
16.01.2018 04:00:00 3,9 3,8 3,2 4,2 6,0 13 7 27 15 W 1,2 0 0,2
16.01.2018 03:00:00 3,3 3,0 2,7 4,2 6,0 9 5 22 12 W 0,5 0 0,2
16.01.2018 02:00:00 2,7 2,4 2,0 4,2 6,1 13 7 24 13 W 2,8 0 0,4
16.01.2018 01:00:00 2,0 1,7 1,6 4,2 6,0 12 6 21 12 WNW 4,2 0 0,4
16.01.2018 00:00:00 1,7 1,4 1,4 4,2 6,0 9 5 22 12 W 1,3 0 0,2
15.01.2018 23:00:00 1,5 1,1 1,4 4,2 6,0 11 6 24 13 WSW 0,3 0 0,6
15.01.2018 22:00:00 1,9 1,3 1,7 4,2 6,1 12 6 31 17 WSW 4,4 0 0,2
15.01.2018 21:00:00 2,3 1,3 1,8 4,2 6,1 11 6 34 18 WSW 9 0 0,2
15.01.2018 20:00:00 2,6 1,3 2,3 4,2 6,0 17 9 29 16 WSW 18 0 0,0
15.01.2018 19:00:00 2,5 1,0 2,1 4,1 6,1 14 8 31 17 WSW 20 0 0,0
15.01.2018 18:00:00 2,6 1,0 2,0 4,1 6,1 15 8 35 19 W 20 0 0,0
15.01.2018 17:00:00 2,6 1,3 2,3 4,1 6,1 11 6 28 15 WSW 20 0 0,0
15.01.2018 16:00:00 2,7 1,5 2,5 4,1 6,0 13 7 29 15 W 18 0 0,0
15.01.2018 15:00:00 3,2 0,8 3,3 4,1 6,0 10 6 20 11 WSW 20 0 0,0
15.01.2018 14:00:00 3,5 0,5 2,7 4,1 6,0 12 6 32 17 WSW 20 0 0,0
15.01.2018 13:00:00 3,0 0,7 3,0 4,1 6,1 11 6 26 14 WSW 17 0 0,0
15.01.2018 12:00:00 3,0 1,7 3,4 4,1 6,0 13 7 23 12 WSW 20 0 0,0
15.01.2018 11:00:00 2,4 1,8 2,1 4,1 6,0 7 4 11 6 SW 20 0 0,0
15.01.2018 10:00:00 1,8 1,4 1,6 4,1 6,1 6 3 21 11 WSW 10 0 0,0
15.01.2018 09:00:00 2,1 1,5 1,8 4,1 6,1 10 5 20 11 W 0,2 0 0,0
15.01.2018 08:00:00 2,1 1,4 1,8 4,1 6,1 4 2 11 6 W 11 0 0,0
15.01.2018 07:00:00 2,1 1,2 1,6 4,1 6,0 2 1 8 4 WNW 12 0 0,0
15.01.2018 06:00:00 2,1 0,9 1,7 4,1 6,0 0 0 7 4 N 20 0 0,0
15.01.2018 05:00:00 2,3 1,0 1,5 4,1 6,1 0 0 4 2 N 20 0 0,0
15.01.2018 04:00:00 2,3 1,0 1,9 4,1 6,0 3 1 7 4 SE 20 0 0,0
15.01.2018 03:00:00 2,3 0,8 1,8 4,1 6,1 0 0 4 2 N 20 0 0,0
15.01.2018 02:00:00 2,5 0,9 2,1 4,1 6,1 0 0 8 5 N 19 0 0,0
15.01.2018 01:00:00 2,7 0,8 2,3 4,1 6,1 5 3 9 5 ENE 20 0 0,0
15.01.2018 00:00:00 2,9 0,9 2,3 4,1 6,0 2 1 4 2 ENE 20 0 0,0
14.01.2018 23:00:00 3,1 1,0 2,5 4,1 6,1 5 3 9 5 SE 19 0 0,0
14.01.2018 22:00:00 2,8 0,8 2,4 4,1 6,1 0 0 6 4 N 20 0 0,0
14.01.2018 21:00:00 3,0 0,7 2,5 4,1 6,1 4 2 6 3 ENE 20 0 0,0
14.01.2018 20:00:00 3,0 0,9 2,5 4,1 6,1 0 0 9 5 N 20 0 0,0
14.01.2018 19:00:00 3,0 1,0 2,4 4,0 6,1 5 3 15 8 ENE 19 0 0,0
14.01.2018 18:00:00 2,7 0,9 2,1 4,0 6,1 6 3 14 7 E 20 0 0,0
14.01.2018 17:00:00 3,4 1,3 3,0 4,0 6,1 7 4 23 12 E 20 0 0,0
14.01.2018 16:00:00 3,7 1,2 3,6 4,0 6,1 10 5 19 10 ESE 20 0 0,0
14.01.2018 15:00:00 3,6 0,8 3,7 4,0 6,1 9 5 20 11 E 20 0 0,0
14.01.2018 14:00:00 3,8 0,5 4,3 4,0 6,1 9 5 29 16 E 20 0 0,0
14.01.2018 13:00:00 3,8 0,5 4,7 4,0 6,1 13 7 28 15 E 20 0 0,0
14.01.2018 12:00:00 3,4 0,3 3,9 4,0 6,1 10 5 29 16 E 20 0 0,0
14.01.2018 11:00:00 3,3 -0,2 2,8 4,0 6,1 13 7 28 15 E 20 0 0,0
14.01.2018 10:00:00 2,5 -0,3 2,0 4,0 6,1 13 7 28 15 E 20 0 0,0
14.01.2018 09:00:00 2,0 -0,3 1,8 4,0 6,1 11 6 23 12 E 20 0 0,0
14.01.2018 08:00:00 2,3 0,0 2,0 4,0 6,1 9 5 26 14 E 20 0 0,0
14.01.2018 07:00:00 2,5 0,4 2,1 4,0 6,1 10 5 21 11 SE 20 0 0,0
14.01.2018 06:00:00 2,8 0,2 2,3 4,0 6,1 11 6 28 15 ESE 20 0 0,0
14.01.2018 05:00:00 3,1 0,5 2,6 4,0 6,1 13 7 27 15 ESE 20 0 0,0
14.01.2018 04:00:00 3,2 0,8 2,8 4,0 6,1 5 3 17 9 ESE 20 0 0,0
14.01.2018 03:00:00 3,3 1,0 2,8 4,0 6,1 10 5 31 17 ESE 20 0 0,0
14.01.2018 02:00:00 3,2 0,9 2,4 4,0 6,1 11 6 37 20 SE 20 0 0,0
14.01.2018 01:00:00 3,2 1,2 2,4 4,0 6,1 18 10 38 20 SE 20 0 0,0
14.01.2018 00:00:00 3,5 1,7 2,8 4,0 6,1 11 6 27 15 SE 20 0 0,0
13.01.2018 23:00:00 3,9 1,4 3,2 4,0 6,1 11 6 33 18 SSE 20 0 0,0
13.01.2018 22:00:00 3,9 0,9 3,4 3,9 6,2 17 9 38 21 SE 20 0 0,0
13.01.2018 21:00:00 4,0 0,7 3,5 3,9 6,1 19 10 37 20 SSE 20 0 0,0
13.01.2018 20:00:00 3,8 0,3 3,5 3,8 6,1 6 4 46 25 SSE 20 0 0,0
13.01.2018 19:00:00 3,8 0,1 3,5 3,8 6,1 9 5 36 20 SSE 20 0 0,0
13.01.2018 18:00:00 3,7 0,2 3,3 3,7 6,1 11 6 25 13 SSE 20 0 0,0
13.01.2018 17:00:00 3,5 -0,9 3,4 3,6 6,1 11 6 44 24 SSE 20 0 0,0
13.01.2018 16:00:00 4,4 -2,3 4,7 3,6 6,1 11 6 36 19 S 20 2 0,0
13.01.2018 15:00:00 5,4 -3,4 6,3 3,6 6,2 19 11 37 20 S 20 31 0,0
13.01.2018 14:00:00 6,4 -3,8 8,4 3,6 6,1 17 9 34 19 ESE 20 60 0,0
13.01.2018 13:00:00 6,7 -1,2 7,8 3,6 6,1 8 4 23 13 ESE 20 60 0,0
13.01.2018 12:00:00 5,7 -1,0 6,9 3,7 6,1 8 5 22 12 SE 20 60 0,0
13.01.2018 11:00:00 3,3 -2,9 5,6 3,8 6,2 11 6 18 10 ENE 20 60 0,0
13.01.2018 10:00:00 1,0 -3,3 -2,2 3,9 6,2 6 3 14 8 E 20 44 0,0
13.01.2018 09:00:00 -0,9 -3,9 -3,1 3,9 6,2 9 5 18 10 E 20 22 0,0
13.01.2018 08:00:00 -2,6 -4,3 -3,9 4,0 6,2 11 6 16 9 E 20 0 0,0
13.01.2018 07:00:00 -2,3 -4,2 -3,4 4,0 6,2 7 4 15 8 E 20 0 0,0
13.01.2018 06:00:00 -1,5 -3,5 -3,1 4,1 6,1 10 5 15 8 E 20 0 0,0
13.01.2018 05:00:00 -1,4 -3,4 -3,1 4,1 6,2 9 5 16 9 E 20 0 0,0
13.01.2018 04:00:00 -1,0 -3,4 -1,8 4,1 6,2 10 5 18 10 E 20 0 0,0
13.01.2018 03:00:00 -0,6 -3,1 -4,8 4,2 6,2 13 7 18 10 E 20 0 0,0
13.01.2018 02:00:00 -0,8 -3,0 -4,3 4,2 6,2 4 2 10 5 ENE 20 0 0,0
13.01.2018 01:00:00 -0,4 -2,9 -2,7 4,2 6,2 4 2 15 8 E 20 0 0,0
13.01.2018 00:00:00 0,7 -2,7 -1,7 4,2 6,2 7 4 13 7 E 20 0 0,0
12.01.2018 23:00:00 1,5 -2,6 0,1 4,2 6,2 5 3 17 9 E 20 0 0,0
12.01.2018 22:00:00 2,0 -2,7 1,4 4,1 6,2 14 7 29 16 ENE 20 0 0,0
12.01.2018 21:00:00 2,4 -2,0 1,2 4,1 6,2 9 5 23 12 NE 20 0 0,0
12.01.2018 20:00:00 2,7 -1,7 2,2 4,1 6,2 11 6 24 13 N 20 0 0,0
12.01.2018 19:00:00 2,9 -1,5 1,7 4,0 6,2 10 5 32 17 NE 20 0 0,0
12.01.2018 18:00:00 2,8 -1,4 1,3 3,9 6,2 11 6 23 13 N 20 0 0,0
12.01.2018 17:00:00 3,4 -1,0 3,3 3,9 6,3 9 5 23 13 ENE 20 4 0,0
12.01.2018 16:00:00 3,6 -0,1 4,0 3,8 6,2 10 5 26 14 N 20 1 0,0
12.01.2018 15:00:00 4,8 -0,2 5,4 3,8 6,2 7 4 23 12 NNW 20 53 0,0
12.01.2018 14:00:00 4,0 0,9 4,0 3,8 6,2 6 3 20 11 N 20 14 0,0
12.01.2018 13:00:00 3,4 1,0 3,6 3,8 6,3 8 4 20 11 NW 20 0 0,0
12.01.2018 12:00:00 3,1 0,2 3,8 3,8 6,2 11 6 23 13 NNW 20 19 0,0
12.01.2018 11:00:00 3,0 1,2 2,1 3,8 6,2 9 5 18 10 WNW 19 17 0,0
12.01.2018 10:00:00 1,6 0,0 0,3 3,9 6,2 9 5 21 12 W 20 11 0,0
12.01.2018 09:00:00 0,8 -0,5 -0,1 3,9 6,3 11 6 23 12 W 20 0 0,0
12.01.2018 08:00:00 0,5 -1,0 -0,1 3,9 6,3 11 6 23 12 WNW 20 0 0,0
12.01.2018 07:00:00 1,0 -0,6 0,3 3,9 6,3 7 4 23 12 WNW 18 0 0,0
12.01.2018 06:00:00 1,1 -0,7 0,3 3,9 6,2 8 4 24 13 W 20 0 0,0
12.01.2018 05:00:00 0,9 -0,4 0,3 3,9 6,3 8 5 19 11 WSW 15 0 0,0
12.01.2018 04:00:00 1,4 -0,5 0,7 3,9 6,3 8 4 22 12 N 20 0 0,0
12.01.2018 03:00:00 1,5 0,0 1,0 3,9 6,3 8 4 24 13 W 20 0 0,0
12.01.2018 02:00:00 1,5 0,3 1,0 4,0 6,3 7 4 21 11 W 20 0 0,0
12.01.2018 01:00:00 1,5 0,3 0,6 4,0 6,3 8 4 19 10 W 20 0 0,0
12.01.2018 00:00:00 1,4 0,4 0,5 4,0 6,3 8 4 17 9 W 20 0 0,0
11.01.2018 23:00:00 1,5 0,3 0,9 4,0 6,3 6 3 20 11 WNW 20 0 0,0
11.01.2018 22:00:00 1,8 0,5 0,9 4,0 6,3 8 4 20 11 WNW 20 0 0,0
11.01.2018 21:00:00 1,6 0,6 0,8 4,0 6,3 8 4 24 13 NNW 7 0 0,2
11.01.2018 20:00:00 1,7 0,7 0,6 3,9 6,3 10 5 22 12 WNW 20 0 0,0
11.01.2018 19:00:00 1,1 0,4 0,3 3,9 6,4 8 5 15 8 WNW 20 0 0,0
11.01.2018 18:00:00 1,9 0,7 0,7 3,9 6,3 9 5 17 9 WNW 20 0 0,0
11.01.2018 17:00:00 1,9 0,4 0,8 3,9 6,3 9 5 23 12 NNW 20 0 0,0
11.01.2018 16:00:00 2,5 1,3 2,3 3,9 6,3 7 4 27 15 NNW 8 0 0,2
11.01.2018 15:00:00 2,7 1,1 2,6 3,9 6,4 14 7 35 19 NW 20 1 0,0
11.01.2018 14:00:00 2,5 1,6 2,9 3,9 6,4 9 5 23 12 NW 20 0 0,0
11.01.2018 13:00:00 2,5 2,2 2,3 3,9 6,3 10 5 19 11 WNW 20 0 0,0
11.01.2018 12:00:00 1,8 1,7 1,6 3,9 6,3 9 5 14 8 W 18 0 0,0
11.01.2018 11:00:00 1,2 1,1 1,0 3,9 6,4 8 4 14 7 W 0,6 0 0,0
11.01.2018 10:00:00 0,6 0,5 0,0 4,0 6,4 4 2 7 4 W 0,2 0 0,0
11.01.2018 09:00:00 0,1 -0,2 -0,1 4,0 6,4 3 2 5 3 W 0,3 0 0,2
11.01.2018 08:00:00 0,1 0,0 0,0 4,0 6,4 0 0 5 3 N 2,5 0 0,2
11.01.2018 07:00:00 0,0 -0,1 0,0 4,0 6,4 3 2 6 3 ENE 0,3 0 0,0
11.01.2018 06:00:00 0,1 0,0 0,0 4,1 6,4 0 0 4 2 N 0,6 0 0,0
11.01.2018 05:00:00 0,0 -0,3 0,0 4,1 6,4 2 1 8 4 WNW 0,2 0 0,4
11.01.2018 04:00:00 0,1 0,0 0,0 4,0 6,4 3 2 11 6 WNW 0,2 0 0,6
11.01.2018 03:00:00 0,7 0,6 0,2 4,1 6,4 9 5 14 8 W 0,2 0 0,6
11.01.2018 02:00:00 1,2 1,1 0,7 4,1 6,5 3 1 7 4 ENE 0,1 0 0,0
11.01.2018 01:00:00 1,0 0,7 0,8 4,1 6,4 2 1 7 4 S 0,1 0 0,0
11.01.2018 00:00:00 1,3 1,0 1,0 4,1 6,5 6 3 10 6 ESE 0,1 0 0,0
10.01.2018 23:00:00 1,7 1,4 1,0 4,1 6,4 0 0 4 2 N 1,0 0 0,0
10.01.2018 22:00:00 1,7 1,4 0,9 4,1 6,5 2 1 8 5 SW 4,4 0 0,0
10.01.2018 21:00:00 1,8 1,4 0,3 4,1 6,4 3 1 4 2 NNE 0,2 0 0,0
10.01.2018 20:00:00 2,4 2,0 1,1 4,1 6,5 0 0 4 2 N 7 0 0,0
10.01.2018 19:00:00 2,5 2,1 1,6 4,0 6,4 3 1 7 4 ESE 4,8 0 0,0
10.01.2018 18:00:00 2,8 2,4 1,5 4,0 6,5 0 0 4 2 N 0,3 0 0,0
10.01.2018 17:00:00 3,2 2,5 2,3 4,0 6,5 3 1 8 4 NW 15 0 0,0
10.01.2018 16:00:00 3,3 2,7 2,7 4,0 6,5 5 3 9 5 S 7 0 0,0
10.01.2018 15:00:00 2,7 2,1 2,5 4,0 6,5 2 1 7 4 N 3,1 0 0,0
10.01.2018 14:00:00 2,8 1,9 2,9 4,0 6,6 2 1 4 2 E 2,7 0 0,0
10.01.2018 13:00:00 2,8 2,1 2,8 4,0 6,5 0 0 8 5 N 13 0 0,0
10.01.2018 12:00:00 2,7 2,1 1,8 4,0 6,5 4 2 9 5 W 2,3 0 0,0
10.01.2018 11:00:00 2,0 1,3 1,5 4,0 6,5 4 2 9 5 ESE 14 0 0,0
10.01.2018 10:00:00 1,8 1,4 1,2 4,1 6,5 4 2 7 4 ESE 6 0 0,0

tt = Température de l'air
td = dewpoint
tt 5cm = Température de l'air 5cm
tt -20cm = Température de l'air -20cm
tt -100cm = Température de l'air -100cm
ff = Vitesse du vent
fx = gusts
dd = Direction du vent
vv = visibility
sd = Ensoleillement
rr = Quantités de précipitations

stations d'obs. à proximité